sensor_id;sensor_type;location;lat;lon;timestamp;temperature;humidity
975;DHT22;6115;49.296;10.602;2023-10-08T00:01:09;17.60;45.30
975;DHT22;6115;49.296;10.602;2023-10-08T00:06:15;17.60;45.00
975;DHT22;6115;49.296;10.602;2023-10-08T00:11:16;17.60;45.20
975;DHT22;6115;49.296;10.602;2023-10-08T00:16:16;17.60;45.60
975;DHT22;6115;49.296;10.602;2023-10-08T00:21:18;17.60;45.60
975;DHT22;6115;49.296;10.602;2023-10-08T00:26:20;17.60;45.80
975;DHT22;6115;49.296;10.602;2023-10-08T00:31:28;17.60;45.90
975;DHT22;6115;49.296;10.602;2023-10-08T00:36:32;17.60;46.10
975;DHT22;6115;49.296;10.602;2023-10-08T00:41:34;17.50;46.10
975;DHT22;6115;49.296;10.602;2023-10-08T00:46:35;17.50;46.30
975;DHT22;6115;49.296;10.602;2023-10-08T00:51:57;17.50;46.60
975;DHT22;6115;49.296;10.602;2023-10-08T00:57:04;17.60;46.70
975;DHT22;6115;49.296;10.602;2023-10-08T01:02:06;17.60;46.80
975;DHT22;6115;49.296;10.602;2023-10-08T01:07:09;17.50;47.00
975;DHT22;6115;49.296;10.602;2023-10-08T01:12:14;17.50;47.00
975;DHT22;6115;49.296;10.602;2023-10-08T01:17:28;17.50;47.30
975;DHT22;6115;49.296;10.602;2023-10-08T01:22:32;17.50;47.90
975;DHT22;6115;49.296;10.602;2023-10-08T01:27:33;17.30;47.70
975;DHT22;6115;49.296;10.602;2023-10-08T01:32:35;17.30;47.80
975;DHT22;6115;49.296;10.602;2023-10-08T01:37:36;17.30;47.70
975;DHT22;6115;49.296;10.602;2023-10-08T01:42:40;17.30;47.80
975;DHT22;6115;49.296;10.602;2023-10-08T01:47:41;17.30;48.30
975;DHT22;6115;49.296;10.602;2023-10-08T01:52:43;17.40;48.40
975;DHT22;6115;49.296;10.602;2023-10-08T01:57:48;17.30;48.70
975;DHT22;6115;49.296;10.602;2023-10-08T02:02:52;17.30;48.70
975;DHT22;6115;49.296;10.602;2023-10-08T02:07:54;17.30;49.30
975;DHT22;6115;49.296;10.602;2023-10-08T02:12:55;17.20;48.90
975;DHT22;6115;49.296;10.602;2023-10-08T02:17:56;17.20;48.80
975;DHT22;6115;49.296;10.602;2023-10-08T02:22:57;17.10;49.00
975;DHT22;6115;49.296;10.602;2023-10-08T02:27:58;17.10;49.00
975;DHT22;6115;49.296;10.602;2023-10-08T02:32:58;17.10;49.10
975;DHT22;6115;49.296;10.602;2023-10-08T02:37:59;17.10;49.10
975;DHT22;6115;49.296;10.602;2023-10-08T02:42:59;17.10;49.30
975;DHT22;6115;49.296;10.602;2023-10-08T02:48:00;17.10;49.10
975;DHT22;6115;49.296;10.602;2023-10-08T02:53:01;17.10;48.90
975;DHT22;6115;49.296;10.602;2023-10-08T02:58:11;17.10;49.00
975;DHT22;6115;49.296;10.602;2023-10-08T03:03:15;17.00;49.00
975;DHT22;6115;49.296;10.602;2023-10-08T03:08:18;17.00;49.00
975;DHT22;6115;49.296;10.602;2023-10-08T03:13:22;17.00;49.20
975;DHT22;6115;49.296;10.602;2023-10-08T03:18:22;17.10;49.40
975;DHT22;6115;49.296;10.602;2023-10-08T03:23:23;17.00;49.50
975;DHT22;6115;49.296;10.602;2023-10-08T03:28:23;16.90;49.70
975;DHT22;6115;49.296;10.602;2023-10-08T03:33:25;16.90;49.80
975;DHT22;6115;49.296;10.602;2023-10-08T03:38:28;17.00;49.90
975;DHT22;6115;49.296;10.602;2023-10-08T03:43:28;17.00;50.00
975;DHT22;6115;49.296;10.602;2023-10-08T03:48:42;17.00;50.30
975;DHT22;6115;49.296;10.602;2023-10-08T03:53:45;16.80;51.10
975;DHT22;6115;49.296;10.602;2023-10-08T03:58:58;16.70;51.00
975;DHT22;6115;49.296;10.602;2023-10-08T04:04:01;16.70;51.20
975;DHT22;6115;49.296;10.602;2023-10-08T04:09:01;16.60;51.70
975;DHT22;6115;49.296;10.602;2023-10-08T04:14:08;16.60;51.60
975;DHT22;6115;49.296;10.602;2023-10-08T04:19:09;16.60;51.60
975;DHT22;6115;49.296;10.602;2023-10-08T04:24:11;16.60;51.60
975;DHT22;6115;49.296;10.602;2023-10-08T04:29:14;16.50;51.90
975;DHT22;6115;49.296;10.602;2023-10-08T04:34:16;16.40;52.50
975;DHT22;6115;49.296;10.602;2023-10-08T04:39:17;16.30;52.90
975;DHT22;6115;49.296;10.602;2023-10-08T04:44:21;16.20;53.20
975;DHT22;6115;49.296;10.602;2023-10-08T04:49:22;16.00;53.60
975;DHT22;6115;49.296;10.602;2023-10-08T04:54:27;16.00;53.90
975;DHT22;6115;49.296;10.602;2023-10-08T04:59:30;16.00;54.00
975;DHT22;6115;49.296;10.602;2023-10-08T05:04:34;16.00;54.30
975;DHT22;6115;49.296;10.602;2023-10-08T05:09:47;15.90;54.60
975;DHT22;6115;49.296;10.602;2023-10-08T05:14:48;15.90;55.00
975;DHT22;6115;49.296;10.602;2023-10-08T05:20:08;15.80;55.10
975;DHT22;6115;49.296;10.602;2023-10-08T05:25:08;15.80;55.40
975;DHT22;6115;49.296;10.602;2023-10-08T05:30:23;15.80;55.40
975;DHT22;6115;49.296;10.602;2023-10-08T05:35:54;15.70;55.40
975;DHT22;6115;49.296;10.602;2023-10-08T05:41:10;15.80;55.50
975;DHT22;6115;49.296;10.602;2023-10-08T05:46:28;15.80;55.50
975;DHT22;6115;49.296;10.602;2023-10-08T05:51:32;15.70;55.40
975;DHT22;6115;49.296;10.602;2023-10-08T05:56:48;15.70;55.80
975;DHT22;6115;49.296;10.602;2023-10-08T06:02:07;15.70;55.80
975;DHT22;6115;49.296;10.602;2023-10-08T06:07:28;15.80;55.70
975;DHT22;6115;49.296;10.602;2023-10-08T06:12:47;15.80;56.10
975;DHT22;6115;49.296;10.602;2023-10-08T06:18:01;15.80;56.00
975;DHT22;6115;49.296;10.602;2023-10-08T06:23:05;15.90;56.20
975;DHT22;6115;49.296;10.602;2023-10-08T06:28:07;15.90;56.00
975;DHT22;6115;49.296;10.602;2023-10-08T06:33:10;16.00;55.90
975;DHT22;6115;49.296;10.602;2023-10-08T06:38:11;16.10;55.70
975;DHT22;6115;49.296;10.602;2023-10-08T06:43:11;16.20;55.80
975;DHT22;6115;49.296;10.602;2023-10-08T06:48:15;16.20;55.80
975;DHT22;6115;49.296;10.602;2023-10-08T06:53:19;16.40;56.00
975;DHT22;6115;49.296;10.602;2023-10-08T06:58:19;16.50;56.10
975;DHT22;6115;49.296;10.602;2023-10-08T07:03:20;16.60;55.70
975;DHT22;6115;49.296;10.602;2023-10-08T07:08:21;16.70;55.10
975;DHT22;6115;49.296;10.602;2023-10-08T07:13:23;16.80;55.40
975;DHT22;6115;49.296;10.602;2023-10-08T07:18:24;16.80;55.00
975;DHT22;6115;49.296;10.602;2023-10-08T07:23:30;16.80;55.00
975;DHT22;6115;49.296;10.602;2023-10-08T07:28:35;16.70;55.20
975;DHT22;6115;49.296;10.602;2023-10-08T07:33:36;16.90;54.80
975;DHT22;6115;49.296;10.602;2023-10-08T07:38:37;17.10;54.30
975;DHT22;6115;49.296;10.602;2023-10-08T07:43:41;17.30;54.50
975;DHT22;6115;49.296;10.602;2023-10-08T07:48:44;17.20;54.00
975;DHT22;6115;49.296;10.602;2023-10-08T07:53:44;17.30;53.90
975;DHT22;6115;49.296;10.602;2023-10-08T07:58:45;17.30;53.30
975;DHT22;6115;49.296;10.602;2023-10-08T08:03:47;17.30;53.60
975;DHT22;6115;49.296;10.602;2023-10-08T08:08:49;17.30;53.60
975;DHT22;6115;49.296;10.602;2023-10-08T08:13:50;17.30;54.00
975;DHT22;6115;49.296;10.602;2023-10-08T08:18:51;17.50;54.40
975;DHT22;6115;49.296;10.602;2023-10-08T08:23:52;17.80;53.90
975;DHT22;6115;49.296;10.602;2023-10-08T08:29:05;17.80;53.40
975;DHT22;6115;49.296;10.602;2023-10-08T08:34:09;17.90;53.30
975;DHT22;6115;49.296;10.602;2023-10-08T08:39:15;18.00;52.90
975;DHT22;6115;49.296;10.602;2023-10-08T08:44:37;18.00;52.80
975;DHT22;6115;49.296;10.602;2023-10-08T08:49:46;17.90;53.30
975;DHT22;6115;49.296;10.602;2023-10-08T08:54:47;18.00;53.20
975;DHT22;6115;49.296;10.602;2023-10-08T08:59:55;17.90;52.80
975;DHT22;6115;49.296;10.602;2023-10-08T09:04:57;18.30;53.10
975;DHT22;6115;49.296;10.602;2023-10-08T09:09:59;18.40;52.40
975;DHT22;6115;49.296;10.602;2023-10-08T09:15:01;18.30;52.60
975;DHT22;6115;49.296;10.602;2023-10-08T09:20:03;18.20;52.70
975;DHT22;6115;49.296;10.602;2023-10-08T09:25:07;18.20;53.00
975;DHT22;6115;49.296;10.602;2023-10-08T09:30:09;18.40;52.50
975;DHT22;6115;49.296;10.602;2023-10-08T09:35:10;18.40;53.20
975;DHT22;6115;49.296;10.602;2023-10-08T09:40:14;18.50;52.60
975;DHT22;6115;49.296;10.602;2023-10-08T09:45:21;18.50;52.00
975;DHT22;6115;49.296;10.602;2023-10-08T09:50:28;18.60;51.90
975;DHT22;6115;49.296;10.602;2023-10-08T09:55:29;18.70;51.70
975;DHT22;6115;49.296;10.602;2023-10-08T10:00:30;18.80;51.40
975;DHT22;6115;49.296;10.602;2023-10-08T10:05:34;19.00;50.90
975;DHT22;6115;49.296;10.602;2023-10-08T10:10:37;19.30;50.80
975;DHT22;6115;49.296;10.602;2023-10-08T10:15:44;19.10;50.50
975;DHT22;6115;49.296;10.602;2023-10-08T10:20:46;19.10;50.70
975;DHT22;6115;49.296;10.602;2023-10-08T10:25:46;19.20;50.80
975;DHT22;6115;49.296;10.602;2023-10-08T10:30:49;19.70;51.20
975;DHT22;6115;49.296;10.602;2023-10-08T10:35:53;20.00;50.00
975;DHT22;6115;49.296;10.602;2023-10-08T10:40:55;20.00;50.00
975;DHT22;6115;49.296;10.602;2023-10-08T10:46:00;20.00;50.00
975;DHT22;6115;49.296;10.602;2023-10-08T10:51:20;20.00;50.00
975;DHT22;6115;49.296;10.602;2023-10-08T10:56:23;20.10;50.10
975;DHT22;6115;49.296;10.602;2023-10-08T11:01:30;20.30;49.50
975;DHT22;6115;49.296;10.602;2023-10-08T11:06:46;20.20;50.00
975;DHT22;6115;49.296;10.602;2023-10-08T11:11:47;20.00;50.00
975;DHT22;6115;49.296;10.602;2023-10-08T11:16:55;20.30;50.00
975;DHT22;6115;49.296;10.602;2023-10-08T11:21:56;20.30;50.00
975;DHT22;6115;49.296;10.602;2023-10-08T11:26:56;20.40;49.10
975;DHT22;6115;49.296;10.602;2023-10-08T11:32:15;20.40;48.90
975;DHT22;6115;49.296;10.602;2023-10-08T11:37:31;20.50;49.00
975;DHT22;6115;49.296;10.602;2023-10-08T11:42:35;20.60;49.10
975;DHT22;6115;49.296;10.602;2023-10-08T11:47:35;20.60;49.10
975;DHT22;6115;49.296;10.602;2023-10-08T11:52:37;20.70;48.90
975;DHT22;6115;49.296;10.602;2023-10-08T11:57:46;20.80;49.40
975;DHT22;6115;49.296;10.602;2023-10-08T12:02:49;21.00;48.50
975;DHT22;6115;49.296;10.602;2023-10-08T12:07:53;21.20;49.00
975;DHT22;6115;49.296;10.602;2023-10-08T12:12:58;21.20;48.50
975;DHT22;6115;49.296;10.602;2023-10-08T12:18:00;21.30;48.10
975;DHT22;6115;49.296;10.602;2023-10-08T12:23:13;21.30;48.40
975;DHT22;6115;49.296;10.602;2023-10-08T12:28:25;21.20;48.60
975;DHT22;6115;49.296;10.602;2023-10-08T12:33:26;21.40;48.50
975;DHT22;6115;49.296;10.602;2023-10-08T12:38:30;21.60;48.50
975;DHT22;6115;49.296;10.602;2023-10-08T12:43:32;21.80;48.20
975;DHT22;6115;49.296;10.602;2023-10-08T12:48:36;22.00;48.00
975;DHT22;6115;49.296;10.602;2023-10-08T12:53:38;22.00;47.10
975;DHT22;6115;49.296;10.602;2023-10-08T12:58:39;21.90;47.90
975;DHT22;6115;49.296;10.602;2023-10-08T13:03:42;22.10;47.20
975;DHT22;6115;49.296;10.602;2023-10-08T13:08:42;21.80;48.40
975;DHT22;6115;49.296;10.602;2023-10-08T13:13:43;21.90;48.30
975;DHT22;6115;49.296;10.602;2023-10-08T13:18:45;21.80;48.90
975;DHT22;6115;49.296;10.602;2023-10-08T13:23:46;21.80;48.70
975;DHT22;6115;49.296;10.602;2023-10-08T13:28:46;21.80;48.80
975;DHT22;6115;49.296;10.602;2023-10-08T13:33:47;21.90;48.70
975;DHT22;6115;49.296;10.602;2023-10-08T13:38:49;21.80;48.60
975;DHT22;6115;49.296;10.602;2023-10-08T13:43:51;21.70;49.40
975;DHT22;6115;49.296;10.602;2023-10-08T13:49:02;21.60;49.60
975;DHT22;6115;49.296;10.602;2023-10-08T13:54:03;21.70;49.40
975;DHT22;6115;49.296;10.602;2023-10-08T13:59:07;21.60;49.20
975;DHT22;6115;49.296;10.602;2023-10-08T14:04:13;21.40;49.40
975;DHT22;6115;49.296;10.602;2023-10-08T14:09:18;21.40;50.00
975;DHT22;6115;49.296;10.602;2023-10-08T14:14:31;21.30;50.00
975;DHT22;6115;49.296;10.602;2023-10-08T14:19:37;21.10;51.00
975;DHT22;6115;49.296;10.602;2023-10-08T14:24:46;21.10;51.00
975;DHT22;6115;49.296;10.602;2023-10-08T14:29:47;21.20;50.60
975;DHT22;6115;49.296;10.602;2023-10-08T14:34:52;21.10;51.00
975;DHT22;6115;49.296;10.602;2023-10-08T14:39:55;21.20;51.10
975;DHT22;6115;49.296;10.602;2023-10-08T14:45:14;21.10;51.00
975;DHT22;6115;49.296;10.602;2023-10-08T14:50:19;21.20;51.10
975;DHT22;6115;49.296;10.602;2023-10-08T14:55:20;21.10;51.00
975;DHT22;6115;49.296;10.602;2023-10-08T15:00:22;21.00;50.90
975;DHT22;6115;49.296;10.602;2023-10-08T15:05:26;20.70;50.90
975;DHT22;6115;49.296;10.602;2023-10-08T15:10:27;20.70;52.00
975;DHT22;6115;49.296;10.602;2023-10-08T15:15:29;20.70;51.40
975;DHT22;6115;49.296;10.602;2023-10-08T15:20:34;20.80;51.10
975;DHT22;6115;49.296;10.602;2023-10-08T15:25:35;20.70;51.10
975;DHT22;6115;49.296;10.602;2023-10-08T15:30:36;20.70;51.60
975;DHT22;6115;49.296;10.602;2023-10-08T15:35:37;20.60;51.70
975;DHT22;6115;49.296;10.602;2023-10-08T15:40:37;20.70;51.80
975;DHT22;6115;49.296;10.602;2023-10-08T15:45:38;20.80;51.60
975;DHT22;6115;49.296;10.602;2023-10-08T15:50:38;20.80;51.30
975;DHT22;6115;49.296;10.602;2023-10-08T15:55:40;20.60;51.80
975;DHT22;6115;49.296;10.602;2023-10-08T16:00:42;20.60;52.10
975;DHT22;6115;49.296;10.602;2023-10-08T16:05:43;20.60;52.00
975;DHT22;6115;49.296;10.602;2023-10-08T16:10:46;20.50;52.10
975;DHT22;6115;49.296;10.602;2023-10-08T16:15:47;20.40;52.50
975;DHT22;6115;49.296;10.602;2023-10-08T16:20:47;20.20;52.60
975;DHT22;6115;49.296;10.602;2023-10-08T16:25:49;20.10;53.00
975;DHT22;6115;49.296;10.602;2023-10-08T16:30:53;20.00;53.40
975;DHT22;6115;49.296;10.602;2023-10-08T16:35:54;19.80;54.00
975;DHT22;6115;49.296;10.602;2023-10-08T16:40:56;19.70;55.00
975;DHT22;6115;49.296;10.602;2023-10-08T16:45:56;19.50;54.70
975;DHT22;6115;49.296;10.602;2023-10-08T16:50:59;19.30;55.00
975;DHT22;6115;49.296;10.602;2023-10-08T16:56:02;19.00;55.90
975;DHT22;6115;49.296;10.602;2023-10-08T17:01:03;18.90;56.50
975;DHT22;6115;49.296;10.602;2023-10-08T17:06:09;18.80;56.90
975;DHT22;6115;49.296;10.602;2023-10-08T17:11:10;18.60;57.40
975;DHT22;6115;49.296;10.602;2023-10-08T17:16:11;18.50;57.70
975;DHT22;6115;49.296;10.602;2023-10-08T17:21:16;18.50;57.70
975;DHT22;6115;49.296;10.602;2023-10-08T17:26:19;18.30;58.20
975;DHT22;6115;49.296;10.602;2023-10-08T17:31:20;18.10;59.00
975;DHT22;6115;49.296;10.602;2023-10-08T17:36:20;18.00;59.20
975;DHT22;6115;49.296;10.602;2023-10-08T17:41:21;18.00;59.40
975;DHT22;6115;49.296;10.602;2023-10-08T17:46:22;17.90;59.70
975;DHT22;6115;49.296;10.602;2023-10-08T17:51:26;17.80;60.10
975;DHT22;6115;49.296;10.602;2023-10-08T17:56:27;17.80;60.20
975;DHT22;6115;49.296;10.602;2023-10-08T18:01:27;17.80;60.20
975;DHT22;6115;49.296;10.602;2023-10-08T18:06:28;17.70;60.30
975;DHT22;6115;49.296;10.602;2023-10-08T18:11:29;17.50;60.50
975;DHT22;6115;49.296;10.602;2023-10-08T18:16:30;17.40;61.00
975;DHT22;6115;49.296;10.602;2023-10-08T18:21:31;17.20;61.20
975;DHT22;6115;49.296;10.602;2023-10-08T18:26:33;17.00;62.40
975;DHT22;6115;49.296;10.602;2023-10-08T18:31:43;16.90;62.70
975;DHT22;6115;49.296;10.602;2023-10-08T18:36:43;17.00;62.80
975;DHT22;6115;49.296;10.602;2023-10-08T18:41:45;16.90;62.80
975;DHT22;6115;49.296;10.602;2023-10-08T18:46:46;16.80;63.40
975;DHT22;6115;49.296;10.602;2023-10-08T18:51:47;16.60;63.70
975;DHT22;6115;49.296;10.602;2023-10-08T18:56:49;16.60;64.10
975;DHT22;6115;49.296;10.602;2023-10-08T19:01:50;16.60;64.10
975;DHT22;6115;49.296;10.602;2023-10-08T19:06:51;16.60;64.30
975;DHT22;6115;49.296;10.602;2023-10-08T19:11:51;16.60;64.50
975;DHT22;6115;49.296;10.602;2023-10-08T19:16:52;16.50;64.30
975;DHT22;6115;49.296;10.602;2023-10-08T19:21:54;16.30;64.30
975;DHT22;6115;49.296;10.602;2023-10-08T19:26:57;16.20;64.60
975;DHT22;6115;49.296;10.602;2023-10-08T19:31:57;16.10;65.30
975;DHT22;6115;49.296;10.602;2023-10-08T19:36:58;16.00;65.10
975;DHT22;6115;49.296;10.602;2023-10-08T19:42:02;15.80;64.90
975;DHT22;6115;49.296;10.602;2023-10-08T19:47:03;15.70;65.70
975;DHT22;6115;49.296;10.602;2023-10-08T19:52:04;15.50;66.30
975;DHT22;6115;49.296;10.602;2023-10-08T19:57:04;15.60;66.50
975;DHT22;6115;49.296;10.602;2023-10-08T20:02:05;15.60;66.40
975;DHT22;6115;49.296;10.602;2023-10-08T20:07:06;15.50;66.30
975;DHT22;6115;49.296;10.602;2023-10-08T20:12:07;15.60;66.50
975;DHT22;6115;49.296;10.602;2023-10-08T20:17:09;15.50;66.40
975;DHT22;6115;49.296;10.602;2023-10-08T20:22:10;15.50;66.70
975;DHT22;6115;49.296;10.602;2023-10-08T20:27:11;15.50;66.70
975;DHT22;6115;49.296;10.602;2023-10-08T20:32:15;15.60;66.70
975;DHT22;6115;49.296;10.602;2023-10-08T20:37:16;15.40;67.20
975;DHT22;6115;49.296;10.602;2023-10-08T20:42:17;15.20;67.80
975;DHT22;6115;49.296;10.602;2023-10-08T20:47:18;15.20;67.60
975;DHT22;6115;49.296;10.602;2023-10-08T20:52:19;15.20;67.60
975;DHT22;6115;49.296;10.602;2023-10-08T20:57:19;15.20;67.50
975;DHT22;6115;49.296;10.602;2023-10-08T21:02:20;15.30;68.00
975;DHT22;6115;49.296;10.602;2023-10-08T21:07:21;15.30;68.40
975;DHT22;6115;49.296;10.602;2023-10-08T21:12:22;15.30;69.20
975;DHT22;6115;49.296;10.602;2023-10-08T21:17:25;15.20;70.10
975;DHT22;6115;49.296;10.602;2023-10-08T21:22:27;15.20;70.50
975;DHT22;6115;49.296;10.602;2023-10-08T21:27:28;15.10;70.80
975;DHT22;6115;49.296;10.602;2023-10-08T21:32:29;14.90;71.10
975;DHT22;6115;49.296;10.602;2023-10-08T21:37:29;14.70;71.40
975;DHT22;6115;49.296;10.602;2023-10-08T21:42:30;14.60;71.70
975;DHT22;6115;49.296;10.602;2023-10-08T21:47:35;14.60;71.50
975;DHT22;6115;49.296;10.602;2023-10-08T21:52:36;14.40;71.50
975;DHT22;6115;49.296;10.602;2023-10-08T21:57:40;14.40;71.80
975;DHT22;6115;49.296;10.602;2023-10-08T22:02:44;14.40;71.80
975;DHT22;6115;49.296;10.602;2023-10-08T22:07:46;14.40;72.10
975;DHT22;6115;49.296;10.602;2023-10-08T22:12:47;14.30;72.00
975;DHT22;6115;49.296;10.602;2023-10-08T22:17:48;14.20;72.00
975;DHT22;6115;49.296;10.602;2023-10-08T22:22:49;14.10;71.90
975;DHT22;6115;49.296;10.602;2023-10-08T22:27:53;14.10;72.20
975;DHT22;6115;49.296;10.602;2023-10-08T22:32:57;13.90;72.40
975;DHT22;6115;49.296;10.602;2023-10-08T22:38:00;13.90;73.00
975;DHT22;6115;49.296;10.602;2023-10-08T22:43:01;13.90;73.00
975;DHT22;6115;49.296;10.602;2023-10-08T22:48:03;13.80;72.90
975;DHT22;6115;49.296;10.602;2023-10-08T22:53:06;13.70;72.80
975;DHT22;6115;49.296;10.602;2023-10-08T22:58:08;13.50;72.60
975;DHT22;6115;49.296;10.602;2023-10-08T23:03:09;13.50;72.50
975;DHT22;6115;49.296;10.602;2023-10-08T23:08:11;13.40;72.10
975;DHT22;6115;49.296;10.602;2023-10-08T23:13:13;13.30;71.70
975;DHT22;6115;49.296;10.602;2023-10-08T23:18:16;13.30;71.70
975;DHT22;6115;49.296;10.602;2023-10-08T23:23:23;13.20;71.30
975;DHT22;6115;49.296;10.602;2023-10-08T23:28:24;13.00;71.70
975;DHT22;6115;49.296;10.602;2023-10-08T23:33:28;13.00;72.10
975;DHT22;6115;49.296;10.602;2023-10-08T23:38:35;13.00;72.90
975;DHT22;6115;49.296;10.602;2023-10-08T23:43:38;13.00;74.20
975;DHT22;6115;49.296;10.602;2023-10-08T23:48:41;13.20;75.90
975;DHT22;6115;49.296;10.602;2023-10-08T23:53:54;13.30;76.60
975;DHT22;6115;49.296;10.602;2023-10-08T23:58:55;13.30;76.60
